Cerro, NM (87519)

10:02 PM MDT on May 04, 2015 (GMT -0600)
APRSWXNET | | Change Station
CLOSE
Current Station
Personal Weather Station
Location: Eagle Nest, NM
Elevation: 9200 ft
Nearby Weather Stations

Elev 9200 ft 36.64 °N, 105.38 °W | Updated 18 minutes ago

Overcast
Overcast
42 °F
Feels Like 42 °F
N
0
Wind Variable Wind from SE
Gusts 0.0 mph

Today
High -- | Low -- °F
--% Chance of Precip.
Yesterday
High -- | Low -- °F
Precip. -- in
6:05 AM 7:52 PM
Full, 99% visible
Pressure 30.10 in
Visibility 10.0 miles
Clouds Overcast 3600 ft
Windchill 42 °F
Dew Point 39 °F
Humidity 88%
Rainfall in
Snow Depth Not available.
UV 0 out of 12
Pollen 9.30 out of 12
Air Quality Not available.
Flu Activity Local Activity
METAR KAXX 050355Z AUTO 18004KT 10SM -RA OVC036 06/05 A3010 RMK AO2 T00610049

More Conditions Fewer Conditions

Pressure 30.10 in
Visibility 10.0 miles
Clouds Overcast 3600 ft
Windchill 42 °F
Dew Point 39 °F
Humidity 88%
Rainfall in
Snow Depth Not available.
UV 0 out of 12
Pollen 9.30 out of 12
Air Quality Not available.
Flu Activity Local Activity
METAR KAXX 050355Z AUTO 18004KT 10SM -RA OVC036 06/05 A3010 RMK AO2 T00610049

More Conditions Fewer Conditions

Nepal has a long way to go to dig out and rebuild from a devastating earthquake. We have teamed up with several charities and organizations to make contributing to the relief effort as easy as possible.
How you can help: Portlight Strategies | Red Cross
Nowcast | as of 9:50 PM MDT on May 4, 2015

Areas of light to moderate rain and isolated embedded thunderstorms will continue through midnight MDT and and perhaps beyond across north central...central and south central New Mexico. Movement will be to the north and northeast around 15 to 20 mph. Through this period the more widespread rains will favor areas near and east of the Central Mountain chain. Brief moderate to heavy rainfall will dump as much as two tenths to a third of an inch of rain with the stronger activity with lesser amounts by far the rule to the west of the Central Mountain chain.

×

10-Day Weather Forecast

Almanac

Astronomy

May. 04, 2015 Rise Set
Actual Time
Civil Twilight
Nautical Twilight
Astronomical Twilight
Moon
Length of Visible Light
Length of Day
Tomorrow will be .
, % of the Moon is Illuminated

Today's Extremes

State Highs State Lows

Community

WunderPhotos

Upload Photos

1,818,813 photos uploaded!

WunderBlogs® & News

Nearby

Air Quality

  Air Quality AQ Index Pollutant
Not available.

Snow Depth

Station Depth Elevation

Earthquake Activity

City Distance Mag. Time & Date
Minimum magnitude displayed is 2.5.

Coastal Water Temperatures

Place Temperature

Stations

Nearby Weather Stations

Station Location Temp. Windchill Dew Point Humidity Wind Precip. Elev Updated Type